Date,TemperatureHighF,TemperatureAvgF,TemperatureLowF,DewpointHighF,DewpointAvgF,DewpointLowF,HumidityHigh,HumidityAvg,HumidityLow,PressureMaxIn,PressureMinIn,WindSpeedMaxMPH,WindSpeedAvgMPH,GustSpeedMaxMPH,PrecipitationSumIn
2014-11-30,59,45,40,39,15,-10,78,38,10,30.06,29.63,8,2,8,0.00
2014-12-1,46,36,29,27,2,-12,59,26,10,30.58,29.81,10,3,10,0.05
2014-12-2,45,41,39,36,32,28,77,72,59,29.85,29.68,2,0,2,0.11
2014-12-3,43,41,41,30,18,10,65,40,26,29.93,29.86,1,0,1,0.00
2014-12-4,52,51,50,7,2,-3,17,13,10,30.06,30.05,5,3,5,0.00
2014-12-5,77,50,43,30,20,0,60,34,10,30.07,29.89,9,2,9,0.02
2014-12-6,48,44,41,38,27,17,68,51,37,30.23,29.94,10,2,10,0.71
2014-12-7,42,36,29,20,9,-14,52,34,14,30.70,30.22,17,7,17,0.18
2014-12-8,41,36,29,35,23,12,80,59,46,30.78,30.52,9,4,14,0.00
2014-12-9,56,49,41,52,40,34,86,72,56,30.53,29.53,21,5,21,1.31
2014-12-10,51,45,40,36,-2,-12,56,16,10,29.56,29.47,11,1,11,0.15
2014-12-11,41,35,30,25,12,-16,75,46,10,29.85,29.48,13,2,13,0.15
2014-12-12,45,37,30,24,20,11,76,51,25,29.93,29.84,6,1,7,0.15
2014-12-13,41,34,28,26,22,19,79,64,46,29.92,29.82,4,1,6,0.15
2014-12-14,47,36,28,24,22,12,81,59,25,29.96,29.83,6,2,6,0.15
2014-12-15,44,40,23,31,27,8,81,61,41,30.20,29.95,7,1,7,0.15
2014-12-16,45,44,39,33,32,30,72,63,57,30.20,30.02,4,0,4,0.15
2014-12-17,47,44,42,30,16,11,57,31,27,30.02,29.71,49,2,49,0.15
2014-12-18,47,40,22,25,20,9,70,47,21,29.91,29.81,98,3,98,0.18
2014-12-19,37,34,29,25,16,-21,78,47,10,30.19,29.91,8,1,8,0.18
2014-12-20,39,35,26,31,27,14,79,72,56,30.33,30.19,7,1,7,0.11
2014-12-21,40,33,24,30,23,13,69,66,62,30.40,30.31,4,1,4,0.04
2014-12-22,44,40,38,30,29,18,69,64,55,30.44,30.34,4,1,4,0.01
2014-12-23,47,45,20,29,27,5,56,50,45,30.35,30.18,7,4,7,0.13
2014-12-24,64,52,46,64,38,22,99,62,38,30.20,29.63,15,2,15,1.13
2014-12-25,64,50,50,63,6,4,99,18,15,30.04,29.62,13,5,13,0.20
2014-12-26,51,44,35,33,19,4,90,49,15,30.23,30.03,12,3,12,0.20
2014-12-27,57,41,26,37,25,-1,96,69,10,30.28,30.14,3,1,3,0.00
2014-12-28,52,48,38,46,39,33,95,72,59,30.14,29.82,49,1,49,0.05
2014-12-29,47,41,29,34,19,15,84,42,32,30.23,30.03,7,2,7,0.00
2014-12-30,42,23,15,15,-7,-24,59,31,10,30.41,30.22,5,2,7,0.00
2014-12-31,32,21,15,13,-4,-21,57,39,10,30.38,30.24,4,1,4,0.00
2015-1-1,36,29,26,13,5,-19,57,40,10,30.24,29.99,8,1,8,2.74
2015-1-2,33,32,32,6,-1,-4,31,23,22,30.42,30.00,4,2,5,0.00